Time;durP1;ratioP1;P1;durP2;ratioP2;P2;SDS_P1;SDS_P2;PMS_P1;PMS_P2;Temp;Humidity;BMP_temperature;BMP_pressure;BME280_temperature;BME280_humidity;BME280_pressure;Samples;Min_cycle;Max_cycle;Signal;HPM_P1;HPM_P2
2023/08/25 00:05:00;;;;;;;;;;;18.30;99.90;;;;;;6701189;88;20178;-77
2023/08/25 00:15:00;;;;;;;;;;;18.20;99.90;;;;;;6700589;88;20113;-77
2023/08/25 00:25:02;;;;;;;;;;;18.30;99.90;;;;;;6708691;88;20089;-77
2023/08/25 00:35:03;;;;;;;;;;;18.40;99.90;;;;;;6700015;88;20090;-77
2023/08/25 00:45:04;;;;;;;;;;;18.40;99.90;;;;;;6699887;88;20596;-77
2023/08/25 00:55:04;;;;;;;;;;;18.30;99.90;;;;;;6686657;88;20056;-77
2023/08/25 01:05:05;;;;;;;;;;;18.20;99.90;;;;;;6685422;88;20064;-77
2023/08/25 01:15:10;;;;;;;;;;;18.10;99.90;;;;;;6704865;88;20096;-76
2023/08/25 01:25:31;;;;;;;;;;;18.20;99.90;;;;;;6699698;88;20066;-77
2023/08/25 01:46:14;;;;;;;;;;;18.40;99.90;;;;;;6684321;88;20080;-77
2023/08/25 01:56:15;;;;;;;;;;;18.40;99.90;;;;;;6682663;88;20068;-77
2023/08/25 02:06:15;;;;;;;;;;;18.30;99.90;;;;;;6714422;88;20588;-78
2023/08/25 02:16:16;;;;;;;;;;;18.40;99.90;;;;;;6698050;88;20053;-78
2023/08/25 02:26:16;;;;;;;;;;;18.30;99.90;;;;;;6705390;88;20459;-78
2023/08/25 02:36:17;;;;;;;;;;;18.20;99.90;;;;;;6695141;88;20059;-78
2023/08/25 02:46:17;;;;;;;;;;;18.10;99.90;;;;;;6703664;88;20191;-77
2023/08/25 02:56:18;;;;;;;;;;;18.20;99.90;;;;;;6691985;88;20085;-77
2023/08/25 03:06:18;;;;;;;;;;;18.20;99.90;;;;;;6688149;88;20525;-78
2023/08/25 03:16:18;;;;;;;;;;;18.10;99.90;;;;;;6697518;88;20568;-78
2023/08/25 03:26:19;;;;;;;;;;;18.00;99.90;;;;;;6703205;88;20087;-78
2023/08/25 03:36:19;;;;;;;;;;;18.00;99.90;;;;;;6707840;88;20083;-78
2023/08/25 03:46:20;;;;;;;;;;;17.90;99.90;;;;;;6707793;88;20072;-77
2023/08/25 03:56:21;;;;;;;;;;;18.00;99.90;;;;;;6695492;88;20138;-78
2023/08/25 04:06:22;;;;;;;;;;;18.10;99.90;;;;;;6685117;88;20110;-77
2023/08/25 04:16:22;;;;;;;;;;;18.10;99.90;;;;;;6689413;88;20067;-77
2023/08/25 04:26:22;;;;;;;;;;;18.20;99.90;;;;;;6697165;88;20484;-77
2023/08/25 04:36:23;;;;;;;;;;;18.30;99.90;;;;;;6692660;88;20073;-77
2023/08/25 04:46:23;;;;;;;;;;;18.40;99.90;;;;;;6696244;88;20141;-78
2023/08/25 04:56:24;;;;;;;;;;;18.40;99.90;;;;;;6697036;88;20061;-78
2023/08/25 05:06:25;;;;;;;;;;;18.50;99.90;;;;;;6700862;88;20049;-77
2023/08/25 05:16:25;;;;;;;;;;;18.50;99.90;;;;;;6697238;88;20053;-80
2023/08/25 05:26:26;;;;;;;;;;;18.50;99.90;;;;;;6678314;88;20494;-81
2023/08/25 05:36:26;;;;;;;;;;;18.50;99.90;;;;;;6685944;88;20522;-79
2023/08/25 05:46:28;;;;;;;;;;;18.60;99.90;;;;;;6686395;88;20064;-78
2023/08/25 05:56:29;;;;;;;;;;;18.60;99.90;;;;;;6692134;88;20087;-77
2023/08/25 06:06:30;;;;;;;;;;;18.60;99.90;;;;;;6687549;88;20104;-78
2023/08/25 06:16:30;;;;;;;;;;;18.70;99.90;;;;;;6685031;88;20193;-77
2023/08/25 06:26:31;;;;;;;;;;;18.80;99.90;;;;;;6701646;88;20627;-77
2023/08/25 06:36:32;;;;;;;;;;;18.90;99.90;;;;;;6692413;88;20120;-78
2023/08/25 06:46:33;;;;;;;;;;;19.10;99.90;;;;;;6701883;88;20673;-77
2023/08/25 06:56:33;;;;;;;;;;;19.20;99.90;;;;;;6694602;88;20551;-77
2023/08/25 07:06:36;;;;;;;;;;;19.60;99.90;;;;;;6691353;88;20574;-77
2023/08/25 07:16:36;;;;;;;;;;;19.70;99.90;;;;;;6690114;88;20059;-78
2023/08/25 07:26:37;;;;;;;;;;;20.00;99.90;;;;;;6690244;88;20630;-78
2023/08/25 07:36:38;;;;;;;;;;;19.90;99.90;;;;;;6703195;77;20126;-75
2023/08/25 07:46:39;;;;;;;;;;;19.90;99.90;;;;;;6687159;88;20067;-75
2023/08/25 07:56:39;;;;;;;;;;;20.00;99.90;;;;;;6687506;88;20523;-75
2023/08/25 08:06:40;;;;;;;;;;;20.30;99.90;;;;;;6687105;88;20130;-75
2023/08/25 08:16:40;;;;;;;;;;;20.50;99.90;;;;;;6691729;88;20487;-75
2023/08/25 08:26:41;;;;;;;;;;;20.30;99.90;;;;;;6689181;88;20056;-75
2023/08/25 08:36:41;;;;;;;;;;;20.40;99.90;;;;;;6685225;88;20056;-74
2023/08/25 08:46:42;;;;;;;;;;;20.30;99.90;;;;;;6692945;88;20052;-75
2023/08/25 08:56:42;;;;;;;;;;;20.30;99.90;;;;;;6694422;88;20067;-75
2023/08/25 09:06:43;;;;;;;;;;;20.40;99.90;;;;;;6685332;88;20201;-75
2023/08/25 09:16:45;;;;;;;;;;;20.60;99.90;;;;;;6688345;88;20080;-75
2023/08/25 09:26:46;;;;;;;;;;;20.70;99.90;;;;;;6687347;88;20069;-75
2023/08/25 09:36:54;;;;;;;;;;;20.70;99.90;;;;;;6689387;88;20100;-75
2023/08/25 09:46:54;;;;;;;;;;;20.60;99.90;;;;;;6692126;88;20204;-74
2023/08/25 09:56:55;;;;;;;;;;;20.30;99.90;;;;;;6688427;88;20106;-74
2023/08/25 10:06:56;;;;;;;;;;;20.50;99.90;;;;;;6691046;88;20106;-75
2023/08/25 10:16:59;;;;;;;;;;;20.40;99.90;;;;;;6695359;88;20052;-74
2023/08/25 10:27:00;;;;;;;;;;;20.50;99.90;;;;;;6690824;88;20060;-74
2023/08/25 10:37:05;;;;;;;;;;;20.90;99.90;;;;;;6687931;88;20074;-74
2023/08/25 10:47:06;;;;;;;;;;;21.60;99.90;;;;;;6683083;88;20177;-75
2023/08/25 10:57:25;;;;;;;;;;;21.50;99.90;;;;;;6684573;88;20204;-76
2023/08/25 11:07:41;;;;;;;;;;;21.60;99.90;;;;;;6685035;88;20068;-74
2023/08/25 11:17:42;;;;;;;;;;;21.60;99.90;;;;;;6687703;88;20051;-74
2023/08/25 11:27:42;;;;;;;;;;;21.50;99.90;;;;;;6687866;88;20132;-74
2023/08/25 11:37:46;;;;;;;;;;;21.40;99.90;;;;;;6688656;88;20610;-73
2023/08/25 11:47:47;;;;;;;;;;;21.30;99.90;;;;;;6692905;88;20105;-73
2023/08/25 11:57:49;;;;;;;;;;;21.50;99.90;;;;;;6688264;88;20467;-74
2023/08/25 12:07:51;;;;;;;;;;;21.50;99.90;;;;;;6694449;88;20113;-73
2023/08/25 12:17:52;;;;;;;;;;;21.60;99.90;;;;;;6675916;88;20171;-73
2023/08/25 12:27:54;;;;;;;;;;;21.40;99.90;;;;;;6680400;88;20258;-73
2023/08/25 12:37:54;;;;;;;;;;;21.30;99.90;;;;;;6682816;88;20186;-73
2023/08/25 12:47:55;;;;;;;;;;;21.30;99.90;;;;;;6685026;88;20467;-74
2023/08/25 12:57:56;;;;;;;;;;;21.30;99.90;;;;;;6690440;88;20107;-75
2023/08/25 13:07:56;;;;;;;;;;;21.40;99.90;;;;;;6681222;88;20076;-75
2023/08/25 13:17:57;;;;;;;;;;;21.60;99.90;;;;;;6679553;88;20057;-74
2023/08/25 13:28:00;;;;;;;;;;;22.10;99.90;;;;;;6679017;88;20490;-75
2023/08/25 13:38:01;;;;;;;;;;;22.30;99.90;;;;;;6679871;88;20059;-75
2023/08/25 13:48:02;;;;;;;;;;;24.00;99.90;;;;;;6679405;88;20078;-75
2023/08/25 13:58:02;;;;;;;;;;;24.50;99.90;;;;;;6679436;88;20078;-75
2023/08/25 14:08:03;;;;;;;;;;;24.20;99.90;;;;;;6684950;88;20444;-75
2023/08/25 14:18:03;;;;;;;;;;;23.60;99.90;;;;;;6679150;88;20167;-75
2023/08/25 14:28:06;;;;;;;;;;;23.20;99.90;;;;;;6678901;88;20068;-76
2023/08/25 14:38:07;;;;;;;;;;;23.10;99.90;;;;;;6679178;88;20048;-76
2023/08/25 14:48:07;;;;;;;;;;;23.60;99.90;;;;;;6678293;88;20066;-75
2023/08/25 14:58:07;;;;;;;;;;;23.40;99.90;;;;;;6678435;88;20074;-75
2023/08/25 15:08:08;;;;;;;;;;;23.80;99.90;;;;;;6680698;88;20495;-76
2023/08/25 15:18:09;;;;;;;;;;;25.00;99.90;;;;;;6681790;88;20089;-77
2023/08/25 15:28:09;;;;;;;;;;;25.30;99.90;;;;;;6679857;88;20150;-76
2023/08/25 15:38:10;;;;;;;;;;;25.30;99.90;;;;;;6683760;88;20094;-77
2023/08/25 15:48:10;;;;;;;;;;;25.30;99.90;;;;;;6681533;88;20059;-76
2023/08/25 15:58:11;;;;;;;;;;;25.10;99.90;;;;;;6677991;88;20067;-76
2023/08/25 16:08:11;;;;;;;;;;;25.00;99.90;;;;;;6678937;88;20057;-75
2023/08/25 16:18:11;;;;;;;;;;;24.80;99.90;;;;;;6683683;88;20096;-76
2023/08/25 16:28:12;;;;;;;;;;;25.50;99.90;;;;;;6680023;88;20069;-74
2023/08/25 16:38:12;;;;;;;;;;;25.80;99.90;;;;;;6677791;88;20132;-75
2023/08/25 16:48:13;;;;;;;;;;;25.50;99.90;;;;;;6677188;88;20100;-75
2023/08/25 16:58:14;;;;;;;;;;;25.10;99.90;;;;;;6676115;88;20138;-74
2023/08/25 17:08:15;;;;;;;;;;;24.70;99.90;;;;;;6690962;88;20064;-73
2023/08/25 17:18:15;;;;;;;;;;;24.50;99.90;;;;;;6684035;88;20191;-73
2023/08/25 17:28:15;;;;;;;;;;;24.40;99.90;;;;;;6683014;88;20103;-73
2023/08/25 17:38:16;;;;;;;;;;;24.20;99.90;;;;;;6679143;88;20495;-74
2023/08/25 17:48:16;;;;;;;;;;;24.00;99.90;;;;;;6678429;88;20073;-74
2023/08/25 17:58:18;;;;;;;;;;;23.80;99.90;;;;;;6677322;88;20131;-73
2023/08/25 18:08:18;;;;;;;;;;;23.70;99.90;;;;;;6678538;88;20829;-74
2023/08/25 18:18:20;;;;;;;;;;;23.50;99.90;;;;;;6676830;88;20068;-74
2023/08/25 18:28:20;;;;;;;;;;;23.40;99.90;;;;;;6692088;88;20598;-75
2023/08/25 18:38:22;;;;;;;;;;;23.20;99.90;;;;;;6689731;88;20107;-75
2023/08/25 18:48:23;;;;;;;;;;;23.10;99.90;;;;;;6678332;88;20171;-74
2023/08/25 18:58:23;;;;;;;;;;;22.80;99.90;;;;;;6678063;88;20086;-74
2023/08/25 19:08:24;;;;;;;;;;;22.70;99.90;;;;;;6677374;88;20121;-74
2023/08/25 19:18:24;;;;;;;;;;;22.60;99.90;;;;;;6677401;88;20072;-75
2023/08/25 19:28:25;;;;;;;;;;;22.60;99.90;;;;;;6684977;77;20732;-75
2023/08/25 19:38:26;;;;;;;;;;;22.50;99.90;;;;;;6698596;88;20077;-76
2023/08/25 19:48:30;;;;;;;;;;;22.40;99.90;;;;;;6682271;88;20175;-77
2023/08/25 19:58:31;;;;;;;;;;;22.40;99.90;;;;;;6682633;88;20535;-76
2023/08/25 20:08:32;;;;;;;;;;;22.20;99.90;;;;;;6684527;88;20149;-76
2023/08/25 20:18:33;;;;;;;;;;;22.10;99.90;;;;;;6685951;88;20119;-76
2023/08/25 20:28:36;;;;;;;;;;;22.00;99.90;;;;;;6689259;88;20083;-76
2023/08/25 20:38:36;;;;;;;;;;;21.70;99.90;;;;;;6687079;88;20055;-76
2023/08/25 20:48:38;;;;;;;;;;;21.40;99.90;;;;;;6684749;88;20067;-76
2023/08/25 20:58:38;;;;;;;;;;;21.30;99.90;;;;;;6683288;88;20547;-76
2023/08/25 21:08:39;;;;;;;;;;;21.20;99.90;;;;;;6682380;88;20086;-77
2023/08/25 21:18:39;;;;;;;;;;;21.10;99.90;;;;;;6700142;88;20056;-76
2023/08/25 21:28:40;;;;;;;;;;;21.00;99.90;;;;;;6699563;88;20584;-76
2023/08/25 21:38:40;;;;;;;;;;;20.80;99.90;;;;;;6695745;88;20162;-77
2023/08/25 21:48:41;;;;;;;;;;;20.70;99.90;;;;;;6692066;88;20068;-76
2023/08/25 21:58:41;;;;;;;;;;;20.70;99.90;;;;;;6683192;88;20080;-75
2023/08/25 22:08:42;;;;;;;;;;;20.60;99.90;;;;;;6681528;88;20072;-76
2023/08/25 22:18:42;;;;;;;;;;;20.50;99.90;;;;;;6684801;88;20137;-76
2023/08/25 22:28:43;;;;;;;;;;;20.40;99.90;;;;;;6678130;88;20088;-75
2023/08/25 22:38:43;;;;;;;;;;;20.20;99.90;;;;;;6683807;88;20198;-75
2023/08/25 22:48:43;;;;;;;;;;;20.10;99.90;;;;;;6682940;88;20072;-76
2023/08/25 22:58:44;;;;;;;;;;;20.10;99.90;;;;;;6681972;88;20533;-76
2023/08/25 23:08:45;;;;;;;;;;;20.10;99.90;;;;;;6682089;88;20097;-76
2023/08/25 23:18:45;;;;;;;;;;;20.00;99.90;;;;;;6694672;88;20446;-76
2023/08/25 23:28:46;;;;;;;;;;;19.80;99.90;;;;;;6691256;88;20084;-76
2023/08/25 23:38:46;;;;;;;;;;;19.60;99.90;;;;;;6691695;88;20499;-77
2023/08/25 23:48:47;;;;;;;;;;;19.50;99.90;;;;;;6676339;88;20070;-77
2023/08/25 23:58:47;;;;;;;;;;;19.30;99.90;;;;;;6692822;88;20076;-77
